createdAt,value
2022-10-23T00:01:16.228Z,97293.09
2022-10-23T00:03:18.812Z,97295.06
2022-10-23T00:05:22.505Z,97298.72
2022-10-23T00:07:25.145Z,97294.34
2022-10-23T00:09:27.782Z,97297.03
2022-10-23T00:11:31.748Z,97292.72
2022-10-23T00:13:34.799Z,97287.72
2022-10-23T00:15:38.778Z,97278.53
2022-10-23T00:17:41.722Z,97278.66
2022-10-23T00:19:44.541Z,97272.66
2022-10-23T00:21:47.232Z,97281.22
2022-10-23T00:23:49.911Z,97275.19
2022-10-23T00:25:52.577Z,97269.84
2022-10-23T00:27:55.126Z,97268.78
2022-10-23T00:29:57.713Z,97272.28
2022-10-23T00:32:01.627Z,97272.28
2022-10-23T00:34:07.993Z,97277.28
2022-10-23T00:36:13.301Z,97276.44
2022-10-23T00:38:15.876Z,97274.88
2022-10-23T00:40:18.565Z,97270.41
2022-10-23T00:42:22.416Z,97265.19
2022-10-23T00:45:02.428Z,97268.78
2022-10-23T00:47:06.428Z,97266.13
2022-10-23T00:51:18.209Z,97265.19
2022-10-23T00:53:22.029Z,97265.25
2022-10-23T00:55:26.467Z,97268.72
2022-10-23T00:59:36.939Z,97267.22
2022-10-23T01:01:39.778Z,97272.38
2022-10-23T01:03:43.830Z,97263.81
2022-10-23T01:05:50.874Z,97260.50
2022-10-23T01:07:57.671Z,97257.94
2022-10-23T01:10:06.700Z,97259.66
2022-10-23T01:12:17.220Z,97259.66
2022-10-23T01:14:27.247Z,97256.13
2022-10-23T01:16:38.856Z,97256.91
2022-10-23T01:18:46.784Z,97258.53
2022-10-23T01:20:56.269Z,97257.56
2022-10-23T01:23:13.301Z,97253.91
2022-10-23T01:25:30.535Z,97252.97
2022-10-23T01:27:37.546Z,97247.59
2022-10-23T01:29:44.728Z,97242.31
2022-10-23T01:31:51.997Z,97247.75
2022-10-23T01:34:00.576Z,97246.44
2022-10-23T01:36:07.139Z,97246.19
2022-10-23T01:38:13.791Z,97243.72
2022-10-23T01:40:23.493Z,97234.44
2022-10-23T01:42:32.168Z,97235.44
2022-10-23T01:44:40.391Z,97234.56
2022-10-23T01:46:45.340Z,97237.84
2022-10-23T01:48:52.195Z,97229.22
2022-10-23T01:50:58.125Z,97229.28
2022-10-23T01:53:00.822Z,97233.72
2022-10-23T01:55:03.440Z,97227.84
2022-10-23T01:57:09.464Z,97230.59
2022-10-23T01:59:15.955Z,97226.31
2022-10-23T02:01:23.407Z,97224.59
2022-10-23T02:03:29.671Z,97228.13
2022-10-23T02:05:32.988Z,97219.28
2022-10-23T02:07:36.182Z,97212.53
2022-10-23T02:09:39.105Z,97209.06
2022-10-23T02:11:53.646Z,97203.75
2022-10-23T02:14:00.561Z,97205.53
2022-10-23T02:16:13.269Z,97197.63
2022-10-23T02:18:32.390Z,97206.50
2022-10-23T02:20:40.636Z,97202.97
2022-10-23T02:22:49.835Z,97202.19
2022-10-23T02:24:55.569Z,97193.47
2022-10-23T02:27:02.233Z,97198.75
2022-10-23T02:29:09.665Z,97204.94
2022-10-23T02:31:16.893Z,97193.84
2022-10-23T02:33:21.100Z,97195.66
2022-10-23T02:35:25.816Z,97187.75
2022-10-23T02:37:28.445Z,97189.56
2022-10-23T02:39:31.343Z,97188.41
2022-10-23T02:41:41.416Z,97184.97
2022-10-23T02:43:51.849Z,97176.13
2022-10-23T02:46:00.567Z,97165.69
2022-10-23T02:48:13.326Z,97165.63
2022-10-23T02:50:28.243Z,97164.91
2022-10-23T02:52:38.960Z,97159.91
2022-10-23T02:54:52.027Z,97146.06
2022-10-23T02:57:04.029Z,97153.00
2022-10-23T02:59:15.467Z,97146.97
2022-10-23T03:01:21.929Z,97146.91
2022-10-23T03:03:30.709Z,97143.94
2022-10-23T03:05:39.625Z,97144.81
2022-10-23T03:07:42.741Z,97147.28
2022-10-23T03:09:45.575Z,97151.53
2022-10-23T03:11:48.170Z,97146.22
2022-10-23T03:13:50.782Z,97141.94
2022-10-23T03:15:53.347Z,97146.38
2022-10-23T03:17:56.172Z,97154.22
2022-10-23T03:19:58.770Z,97145.28
2022-10-23T03:22:02.677Z,97151.09
2022-10-23T03:24:05.545Z,97155.38
2022-10-23T03:26:08.123Z,97153.56
2022-10-23T03:28:10.709Z,97150.88
2022-10-23T03:30:13.793Z,97154.28
2022-10-23T03:32:16.411Z,97147.22
2022-10-23T03:34:19.355Z,97147.09
2022-10-23T03:36:21.975Z,97145.38
2022-10-23T03:38:26.137Z,97149.69
2022-10-23T03:40:28.742Z,97147.09
2022-10-23T03:42:33.756Z,97140.16
2022-10-23T03:44:36.304Z,97142.75
2022-10-23T03:46:39.030Z,97146.31
2022-10-23T03:48:42.082Z,97144.63
2022-10-23T03:50:44.675Z,97143.63
2022-10-23T03:52:47.325Z,97136.06
2022-10-23T03:54:51.201Z,97138.59
2022-10-23T03:56:56.651Z,97133.47
2022-10-23T03:59:00.535Z,97134.44
2022-10-23T04:01:03.273Z,97134.63
2022-10-23T04:03:05.882Z,97126.88
2022-10-23T04:05:08.817Z,97131.38
2022-10-23T04:07:11.585Z,97127.91
2022-10-23T04:09:14.283Z,97134.09
2022-10-23T04:11:18.594Z,97144.47
2022-10-23T04:13:21.121Z,97131.44
2022-10-23T04:15:23.691Z,97141.03
2022-10-23T04:19:33.808Z,97144.84
2022-10-23T04:21:36.480Z,97140.50
2022-10-23T04:23:39.123Z,97150.22
2022-10-23T04:25:41.776Z,97140.50
2022-10-23T04:27:46.119Z,97151.94
2022-10-23T04:29:49.137Z,97156.25
2022-10-23T04:31:52.393Z,97154.94
2022-10-23T04:33:55.007Z,97156.06
2022-10-23T04:35:57.651Z,97153.78
2022-10-23T04:38:03.623Z,97152.91
2022-10-23T04:40:07.196Z,97153.78
2022-10-23T04:42:09.831Z,97145.88
2022-10-23T04:44:13.785Z,97151.31
2022-10-23T04:46:16.403Z,97143.59
2022-10-23T04:48:19.027Z,97140.94
2022-10-23T04:50:21.696Z,97132.31
2022-10-23T04:52:24.275Z,97130.56
2022-10-23T04:54:26.853Z,97120.03
2022-10-23T04:56:29.449Z,97129.78
2022-10-23T04:58:32.483Z,97124.69
2022-10-23T05:00:36.437Z,97128.91
2022-10-23T05:02:39.059Z,97129.94
2022-10-23T05:04:41.720Z,97132.44
2022-10-23T05:06:44.271Z,97135.88
2022-10-23T05:08:46.941Z,97126.22
2022-10-23T05:10:50.540Z,97134.84
2022-10-23T05:12:53.094Z,97130.59
2022-10-23T05:14:55.679Z,97136.66
2022-10-23T05:17:03.287Z,97134.00
2022-10-23T05:19:07.874Z,97129.91
2022-10-23T05:21:14.631Z,97129.94
2022-10-23T05:23:21.303Z,97127.34
2022-10-23T05:25:23.878Z,97129.31
2022-10-23T05:27:26.410Z,97123.19
2022-10-23T05:29:29.020Z,97123.25
2022-10-23T05:31:32.901Z,97136.22
2022-10-23T05:33:37.361Z,97124.94
2022-10-23T05:35:41.269Z,97120.56
2022-10-23T05:37:46.396Z,97118.78
2022-10-23T05:39:49.005Z,97118.28
2022-10-23T05:41:52.313Z,97125.22
2022-10-23T05:43:54.918Z,97132.97
2022-10-23T05:45:57.521Z,97123.34
2022-10-23T05:48:10.713Z,97126.81
2022-10-23T05:50:24.128Z,97138.19
2022-10-23T05:52:26.848Z,97127.63
2022-10-23T05:54:29.412Z,97125.06
2022-10-23T05:56:32.048Z,97115.47
2022-10-23T05:58:35.227Z,97104.13
2022-10-23T06:00:37.831Z,97104.06
2022-10-23T06:02:40.560Z,97099.75
2022-10-23T06:04:43.263Z,97097.09
2022-10-23T06:06:47.929Z,97100.53
2022-10-23T06:08:50.547Z,97097.91
2022-10-23T06:10:53.161Z,97104.00
2022-10-23T06:12:55.743Z,97098.69
2022-10-23T06:14:58.670Z,97089.97
2022-10-23T06:17:01.268Z,97090.69
2022-10-23T06:19:04.418Z,97087.28
2022-10-23T06:21:07.284Z,97091.66
2022-10-23T06:23:11.214Z,97090.69
2022-10-23T06:25:13.751Z,97092.50
2022-10-23T06:27:16.311Z,97096.03
2022-10-23T06:29:18.935Z,97103.66
2022-10-23T06:31:26.464Z,97096.47
2022-10-23T06:33:29.048Z,97093.16
2022-10-23T06:35:31.669Z,97106.28
2022-10-23T06:37:35.073Z,97107.06
2022-10-23T06:39:40.420Z,97095.69
2022-10-23T06:41:44.321Z,97098.31
2022-10-23T06:43:49.039Z,97096.47
2022-10-23T06:45:51.603Z,97096.34
2022-10-23T06:47:54.238Z,97101.50
2022-10-23T06:49:56.784Z,97100.63
2022-10-23T06:51:59.366Z,97098.81
2022-10-23T06:54:01.925Z,97097.91
2022-10-23T06:56:07.750Z,97101.31
2022-10-23T06:58:11.348Z,97112.56
2022-10-23T07:00:14.594Z,97102.19
2022-10-23T07:02:17.534Z,97111.69
2022-10-23T07:04:20.110Z,97113.94
2022-10-23T07:06:22.805Z,97118.44
2022-10-23T07:08:25.382Z,97102.59
2022-10-23T07:10:28.055Z,97107.66
2022-10-23T07:12:32.084Z,97105.78
2022-10-23T07:14:34.664Z,97114.72
2022-10-23T07:16:37.195Z,97121.38
2022-10-23T07:18:39.889Z,97117.63
2022-10-23T07:20:42.704Z,97120.66
2022-10-23T07:22:45.531Z,97118.22
2022-10-23T07:24:48.377Z,97118.44
2022-10-23T07:28:59.804Z,97112.50
2022-10-23T07:31:02.893Z,97118.03
2022-10-23T07:33:05.503Z,97118.22
2022-10-23T07:35:09.739Z,97113.84
2022-10-23T07:37:12.337Z,97118.28
2022-10-23T07:39:17.365Z,97116.44
2022-10-23T07:41:19.980Z,97118.03
2022-10-23T07:43:22.680Z,97111.94
2022-10-23T07:45:26.719Z,97102.75
2022-10-23T07:47:29.307Z,97104.25
2022-10-23T07:49:31.973Z,97099.72
2022-10-23T07:51:34.613Z,97096.09
2022-10-23T07:53:38.051Z,97101.13
2022-10-23T07:55:40.628Z,97091.41
2022-10-23T07:57:43.239Z,97080.91
2022-10-23T07:59:45.775Z,97085.88
2022-10-23T08:01:52.583Z,97089.22
2022-10-23T08:03:57.712Z,97080.50
2022-10-23T08:06:00.951Z,97084.06
2022-10-23T08:08:03.498Z,97076.84
2022-10-23T08:10:09.628Z,97065.44
2022-10-23T08:12:12.254Z,97076.53
2022-10-23T08:14:14.819Z,97074.63
2022-10-23T08:16:17.423Z,97072.72
2022-10-23T08:18:21.392Z,97062.03
2022-10-23T08:20:23.921Z,97055.34
2022-10-23T08:22:26.594Z,97054.38
2022-10-23T08:24:29.152Z,97062.75
2022-10-23T08:26:31.961Z,97059.91
2022-10-23T08:28:35.068Z,97060.59
2022-10-23T08:30:37.961Z,97051.69
2022-10-23T08:32:40.579Z,97060.22
2022-10-23T08:34:44.498Z,97064.97
2022-10-23T08:36:47.143Z,97052.75
2022-10-23T08:38:50.469Z,97056.22
2022-10-23T08:40:53.806Z,97059.53
2022-10-23T08:43:02.352Z,97061.53
2022-10-23T08:45:07.852Z,97050.81
2022-10-23T08:47:15.693Z,97054.13
2022-10-23T08:49:25.383Z,97051.34
2022-10-23T08:51:36.048Z,97055.59
2022-10-23T08:53:45.008Z,97045.91
2022-10-23T08:56:01.940Z,97042.25
2022-10-23T08:58:08.241Z,97050.78
2022-10-23T09:00:15.342Z,97045.41
2022-10-23T09:02:22.259Z,97051.22
2022-10-23T09:04:25.041Z,97049.47
2022-10-23T09:06:37.903Z,97053.38
2022-10-23T09:08:48.211Z,97055.09
2022-10-23T09:11:04.583Z,97058.41
2022-10-23T09:13:28.249Z,97059.81
2022-10-23T09:15:36.580Z,97056.13
2022-10-23T09:17:41.407Z,97049.50
2022-10-23T09:19:46.117Z,97046.56
2022-10-23T09:21:51.170Z,97034.28
2022-10-23T09:23:53.769Z,97048.25
2022-10-23T09:25:56.965Z,97037.44
2022-10-23T09:28:01.468Z,97036.31
2022-10-23T09:30:08.722Z,97037.19
2022-10-23T09:32:11.306Z,97029.06
2022-10-23T09:34:20.391Z,97024.50
2022-10-23T09:36:24.493Z,97026.22
2022-10-23T09:38:32.908Z,97010.91
2022-10-23T09:40:43.540Z,97011.97
2022-10-23T09:42:55.537Z,97007.59
2022-10-23T09:44:58.481Z,97010.13
2022-10-23T09:47:11.128Z,97015.19
2022-10-23T09:49:19.459Z,97016.81
2022-10-23T09:51:22.844Z,97008.81
2022-10-23T09:53:35.015Z,97001.81
2022-10-23T09:55:37.674Z,97002.19
2022-10-23T09:57:42.973Z,97002.19
2022-10-23T09:59:51.195Z,97003.88
2022-10-23T10:01:56.142Z,96999.41
2022-10-23T10:03:59.039Z,97009.38
2022-10-23T10:06:04.047Z,97004.59
2022-10-23T10:08:15.864Z,97015.19
2022-10-23T10:10:19.764Z,97026.44
2022-10-23T10:12:39.814Z,97020.25
2022-10-23T10:14:59.318Z,97026.72
2022-10-23T10:17:06.516Z,97014.47
2022-10-23T10:19:20.115Z,97016.09
2022-10-23T10:21:29.552Z,97015.53
2022-10-23T10:23:38.827Z,97022.41
2022-10-23T10:25:52.372Z,97024.09
2022-10-23T10:28:08.401Z,97025.25
2022-10-23T10:30:16.507Z,97013.53
2022-10-23T10:32:32.440Z,97018.78
2022-10-23T10:34:44.234Z,97009.97
2022-10-23T10:36:51.803Z,97007.34
2022-10-23T10:38:59.769Z,97005.56
2022-10-23T10:41:29.175Z,96996.19
2022-10-23T10:43:44.796Z,96995.06
2022-10-23T10:45:49.476Z,96994.03
2022-10-23T10:48:08.369Z,96985.97
2022-10-23T10:50:21.539Z,96983.25
2022-10-23T10:52:32.451Z,96988.41
2022-10-23T10:54:50.657Z,96990.19
2022-10-23T10:56:56.507Z,97006.69
2022-10-23T10:59:02.434Z,96984.00
2022-10-23T11:01:16.306Z,96991.69
2022-10-23T11:03:29.717Z,96987.66
2022-10-23T11:05:33.929Z,96984.91
2022-10-23T11:07:42.642Z,96979.75
2022-10-23T11:09:45.602Z,96976.00
2022-10-23T11:11:48.788Z,96971.88
2022-10-23T11:13:53.929Z,96973.63
2022-10-23T11:15:59.536Z,96965.75
2022-10-23T11:18:05.758Z,96971.00
2022-10-23T11:20:22.563Z,96959.38
2022-10-23T11:22:33.718Z,96957.59
2022-10-23T11:25:00.553Z,96954.03
2022-10-23T11:27:18.330Z,96941.84
2022-10-23T11:30:04.538Z,96940.88
2022-10-23T11:32:24.898Z,96934.78
2022-10-23T11:34:45.109Z,96939.00
2022-10-23T11:36:51.520Z,96927.38
2022-10-23T11:38:59.091Z,96935.91
2022-10-23T11:41:04.610Z,96925.84
2022-10-23T11:43:10.485Z,96918.50
2022-10-23T11:45:31.204Z,96919.78
2022-10-23T11:47:39.773Z,96903.69
2022-10-23T11:49:42.879Z,96903.22
2022-10-23T11:51:45.480Z,96901.25
2022-10-23T11:53:48.078Z,96900.09
2022-10-23T11:56:02.061Z,96906.09
2022-10-23T11:58:19.354Z,96900.66
2022-10-23T12:00:24.004Z,96896.84
2022-10-23T12:02:34.627Z,96896.56
2022-10-23T12:04:42.085Z,96891.94
2022-10-23T12:06:48.720Z,96888.88
2022-10-23T12:08:54.847Z,96882.25
2022-10-23T12:10:57.647Z,96886.38
2022-10-23T12:13:03.751Z,96885.31
2022-10-23T12:15:23.176Z,96892.69
2022-10-23T12:17:37.450Z,96886.91
2022-10-23T12:19:48.872Z,96877.09
2022-10-23T12:21:53.791Z,96871.50
2022-10-23T12:24:24.213Z,96874.78
2022-10-23T12:26:42.204Z,96873.63
2022-10-23T12:28:54.916Z,96871.50
2022-10-23T12:31:07.532Z,96868.88
2022-10-23T12:33:21.778Z,96862.63
2022-10-23T12:35:39.179Z,96858.00
2022-10-23T12:37:56.341Z,96851.81
2022-10-23T12:40:01.854Z,96851.16
2022-10-23T12:42:05.437Z,96843.06
2022-10-23T12:44:13.490Z,96847.25
2022-10-23T12:46:36.709Z,96843.47
2022-10-23T12:48:49.357Z,96823.84
2022-10-23T12:50:53.924Z,96813.31
2022-10-23T12:52:58.368Z,96810.56
2022-10-23T12:55:00.942Z,96805.19
2022-10-23T12:57:03.514Z,96806.97
2022-10-23T12:59:14.635Z,96807.09
2022-10-23T13:01:25.885Z,96816.66
2022-10-23T13:03:30.864Z,96813.88
2022-10-23T13:05:35.050Z,96808.47
2022-10-23T13:07:43.831Z,96819.53
2022-10-23T13:09:47.067Z,96809.59
2022-10-23T13:11:50.733Z,96805.06
2022-10-23T13:13:53.697Z,96799.78
2022-10-23T13:15:56.256Z,96796.84
2022-10-23T13:18:03.997Z,96790.47
2022-10-23T13:20:26.316Z,96790.34
2022-10-23T13:22:30.268Z,96790.97
2022-10-23T13:24:32.952Z,96788.94
2022-10-23T13:26:42.780Z,96787.66
2022-10-23T13:28:46.609Z,96788.88
2022-10-23T13:31:25.155Z,96794.19
2022-10-23T13:33:36.199Z,96788.19
2022-10-23T13:35:38.850Z,96787.63
2022-10-23T13:40:00.271Z,96783.34
2022-10-23T13:42:13.340Z,96787.44
2022-10-23T13:44:17.989Z,96781.31
2022-10-23T13:46:22.977Z,96777.84
2022-10-23T13:48:25.652Z,96773.41
2022-10-23T13:50:28.228Z,96781.31
2022-10-23T13:52:30.855Z,96791.28
2022-10-23T13:54:34.787Z,96797.94
2022-10-23T13:56:37.392Z,96790.16
2022-10-23T13:58:40.099Z,96787.03
2022-10-23T14:00:43.781Z,96789.50
2022-10-23T14:02:46.460Z,96792.97
2022-10-23T14:04:52.349Z,96794.72
2022-10-23T14:06:58.435Z,96797.31
2022-10-23T14:09:01.315Z,96795.47
2022-10-23T14:11:05.514Z,96792.59
2022-10-23T14:13:08.149Z,96787.97
2022-10-23T14:15:12.255Z,96785.03
2022-10-23T14:17:14.839Z,96775.94
2022-10-23T14:19:17.430Z,96772.03
2022-10-23T14:21:21.693Z,96774.97
2022-10-23T14:23:24.299Z,96780.59
2022-10-23T14:25:26.876Z,96775.75
2022-10-23T14:27:31.153Z,96776.94
2022-10-23T14:29:33.804Z,96779.75
2022-10-23T14:31:36.401Z,96782.63
2022-10-23T14:33:39.918Z,96788.13
2022-10-23T14:35:43.263Z,96786.44
2022-10-23T14:37:46.406Z,96793.59
2022-10-23T14:39:50.326Z,96786.75
2022-10-23T14:41:53.160Z,96789.63
2022-10-23T14:43:57.111Z,96782.69
2022-10-23T14:46:09.346Z,96781.81
2022-10-23T14:48:11.996Z,96770.84
2022-10-23T14:50:15.127Z,96780.00
2022-10-23T14:52:17.724Z,96768.06
2022-10-23T14:54:20.355Z,96768.69
2022-10-23T14:56:23.319Z,96768.47
2022-10-23T14:58:25.941Z,96770.16
2022-10-23T15:00:29.917Z,96769.19
2022-10-23T15:02:32.571Z,96771.00
2022-10-23T15:04:35.333Z,96777.09
2022-10-23T15:06:38.747Z,96777.09
2022-10-23T15:08:41.296Z,96768.34
2022-10-23T15:10:43.932Z,96756.16
2022-10-23T15:12:46.833Z,96764.16
2022-10-23T15:14:49.499Z,96759.13
2022-10-23T15:16:53.520Z,96752.28
2022-10-23T15:18:56.360Z,96748.09
2022-10-23T15:20:59.200Z,96751.66
2022-10-23T15:23:02.926Z,96749.13
2022-10-23T15:25:06.487Z,96747.59
2022-10-23T15:29:17.417Z,96730.94
2022-10-23T15:31:46.232Z,96731.66
2022-10-23T15:33:50.225Z,96721.13
2022-10-23T15:35:54.149Z,96716.69
2022-10-23T15:37:56.726Z,96713.25
2022-10-23T15:40:01.413Z,96709.63
2022-10-23T15:42:07.246Z,96715.41
2022-10-23T15:44:12.958Z,96715.69
2022-10-23T15:46:15.621Z,96719.16
2022-10-23T15:48:18.306Z,96699.56
2022-10-23T15:50:22.285Z,96692.41
2022-10-23T15:52:24.914Z,96695.75
2022-10-23T15:54:30.530Z,96692.06
2022-10-23T15:56:36.245Z,96696.78
2022-10-23T15:58:38.905Z,96697.00
2022-10-23T16:00:41.454Z,96704.72
2022-10-23T16:02:44.616Z,96705.81
2022-10-23T16:04:47.418Z,96705.34
2022-10-23T16:06:51.480Z,96716.75
2022-10-23T16:11:01.651Z,96724.88
2022-10-23T16:13:04.259Z,96722.47
2022-10-23T16:15:08.299Z,96733.25
2022-10-23T16:17:13.185Z,96737.91
2022-10-23T16:19:15.858Z,96726.16
2022-10-23T16:21:21.935Z,96724.06
2022-10-23T16:23:28.129Z,96719.03
2022-10-23T16:25:30.711Z,96728.94
2022-10-23T16:27:33.258Z,96727.44
2022-10-23T16:29:36.321Z,96723.28
2022-10-23T16:31:38.917Z,96725.28
2022-10-23T16:33:41.544Z,96721.19
2022-10-23T16:35:44.115Z,96723.09
2022-10-23T16:37:46.979Z,96713.63
2022-10-23T16:39:50.956Z,96706.78
2022-10-23T16:41:53.539Z,96712.03
2022-10-23T16:43:56.304Z,96714.28
2022-10-23T16:46:03.914Z,96712.19
2022-10-23T16:48:06.825Z,96711.13
2022-10-23T16:50:09.551Z,96715.72
2022-10-23T16:52:12.254Z,96705.19
2022-10-23T16:54:15.456Z,96699.44
2022-10-23T16:56:23.048Z,96704.47
2022-10-23T16:58:26.475Z,96703.97
2022-10-23T17:00:35.159Z,96696.69
2022-10-23T17:02:38.266Z,96685.44
2022-10-23T17:04:41.220Z,96693.47
2022-10-23T17:06:43.840Z,96691.91
2022-10-23T17:08:47.053Z,96699.47
2022-10-23T17:10:49.666Z,96700.56
2022-10-23T17:12:53.726Z,96691.19
2022-10-23T17:14:56.310Z,96694.19
2022-10-23T17:17:01.033Z,96692.97
2022-10-23T17:19:16.000Z,96680.28
2022-10-23T17:21:24.088Z,96692.28
2022-10-23T17:23:26.740Z,96693.84
2022-10-23T17:25:29.321Z,96697.91
2022-10-23T17:27:32.011Z,96703.78
2022-10-23T17:29:36.268Z,96723.63
2022-10-23T17:31:40.804Z,96727.69
2022-10-23T17:33:44.161Z,96739.63
2022-10-23T17:35:47.302Z,96745.34
2022-10-23T17:37:50.527Z,96756.00
2022-10-23T17:39:53.118Z,96762.13
2022-10-23T17:41:56.378Z,96770.78
2022-10-23T17:44:00.211Z,96762.88
2022-10-23T17:46:06.396Z,96779.72
2022-10-23T17:48:09.509Z,96798.06
2022-10-23T17:50:13.038Z,96819.09
2022-10-23T17:52:16.628Z,96806.06
2022-10-23T17:54:19.246Z,96822.72
2022-10-23T17:56:24.113Z,96809.66
2022-10-23T17:58:26.658Z,96812.41
2022-10-23T18:00:29.225Z,96799.59
2022-10-23T18:02:33.270Z,96803.50
2022-10-23T18:04:35.863Z,96804.78
2022-10-23T18:06:43.334Z,96796.38
2022-10-23T18:08:47.122Z,96801.03
2022-10-23T18:10:49.823Z,96803.66
2022-10-23T18:12:52.411Z,96814.59
2022-10-23T18:14:56.273Z,96792.34
2022-10-23T18:16:58.964Z,96797.00
2022-10-23T18:19:04.137Z,96812.19
2022-10-23T18:21:07.886Z,96836.56
2022-10-23T18:23:13.059Z,96818.09
2022-10-23T18:25:15.607Z,96827.03
2022-10-23T18:27:18.241Z,96835.28
2022-10-23T18:29:21.231Z,96845.22
2022-10-23T18:31:25.476Z,96845.56
2022-10-23T18:33:28.058Z,96850.19
2022-10-23T18:35:34.817Z,96850.41
2022-10-23T18:37:41.290Z,96862.88
2022-10-23T18:39:44.287Z,96851.78
2022-10-23T18:41:47.357Z,96863.28
2022-10-23T18:43:50.468Z,96869.47
2022-10-23T18:45:53.046Z,96874.94
2022-10-23T18:47:55.914Z,96875.06
2022-10-23T18:49:58.512Z,96871.69
2022-10-23T18:52:03.389Z,96871.69
2022-10-23T18:54:11.398Z,96874.44
2022-10-23T18:56:14.250Z,96873.63
2022-10-23T18:58:17.237Z,96870.97
2022-10-23T19:00:19.895Z,96870.88
2022-10-23T19:02:22.701Z,96869.28
2022-10-23T19:04:25.485Z,96872.03
2022-10-23T19:06:28.903Z,96871.41
2022-10-23T19:08:32.803Z,96874.03
2022-10-23T19:10:36.259Z,96876.22
2022-10-23T19:12:42.063Z,96878.88
2022-10-23T19:14:45.084Z,96880.13
2022-10-23T19:16:59.100Z,96885.75
2022-10-23T19:19:05.426Z,96893.22
2022-10-23T19:21:08.265Z,96904.09
2022-10-23T19:23:12.847Z,96914.50
2022-10-23T19:25:22.322Z,96936.56
2022-10-23T19:27:26.663Z,96943.59
2022-10-23T19:29:29.989Z,96930.53
2022-10-23T19:31:32.662Z,96892.72
2022-10-23T19:33:36.083Z,96898.31
2022-10-23T19:35:38.729Z,96914.16
2022-10-23T19:37:41.675Z,96909.25
2022-10-23T19:39:46.909Z,96917.22
2022-10-23T19:41:53.587Z,96897.28
2022-10-23T19:43:56.221Z,96910.47
2022-10-23T19:46:03.967Z,96909.66
2022-10-23T19:48:09.073Z,96907.75
2022-10-23T19:50:11.639Z,96920.09
2022-10-23T19:52:14.201Z,96901.84
2022-10-23T19:54:16.800Z,96908.69
2022-10-23T19:56:19.348Z,96910.72
2022-10-23T19:58:23.320Z,96907.13
2022-10-23T20:00:26.825Z,96910.72
2022-10-23T20:02:29.716Z,96906.53
2022-10-23T20:04:32.469Z,96902.06
2022-10-23T20:06:36.384Z,96903.50
2022-10-23T20:08:39.700Z,96914.84
2022-10-23T20:10:43.326Z,96914.50
2022-10-23T20:12:56.354Z,96913.72
2022-10-23T20:15:07.708Z,96911.16
2022-10-23T20:17:10.349Z,96912.38
2022-10-23T20:21:23.687Z,96907.34
2022-10-23T20:23:26.787Z,96913.38
2022-10-23T20:25:29.526Z,96918.41
2022-10-23T20:27:32.151Z,96907.72
2022-10-23T20:29:34.732Z,96913.63
2022-10-23T20:31:39.426Z,96891.41
2022-10-23T20:33:42.607Z,96895.00
2022-10-23T20:35:45.271Z,96917.09
2022-10-23T20:37:47.909Z,96901.38
2022-10-23T20:39:50.729Z,96906.41
2022-10-23T20:41:55.139Z,96911.41
2022-10-23T20:43:57.773Z,96925.00
2022-10-23T20:46:04.729Z,96912.28
2022-10-23T20:48:08.867Z,96905.19
2022-10-23T20:50:11.423Z,96914.69
2022-10-23T20:52:14.204Z,96920.66
2022-10-23T20:54:16.752Z,96920.94
2022-10-23T20:56:23.182Z,96930.66
2022-10-23T20:58:28.209Z,96914.69
2022-10-23T21:00:33.540Z,96922.59
2022-10-23T21:02:36.172Z,96921.16
2022-10-23T21:04:40.099Z,96942.75
2022-10-23T21:07:04.441Z,96937.50
2022-10-23T21:09:07.432Z,96922.72
2022-10-23T21:11:12.289Z,96916.25
2022-10-23T21:13:15.086Z,96925.13
2022-10-23T21:15:18.017Z,96913.03
2022-10-23T21:17:20.664Z,96930.16
2022-10-23T21:19:23.468Z,96921.53
2022-10-23T21:21:28.226Z,96942.94
2022-10-23T21:23:30.799Z,96937.06
2022-10-23T21:25:33.375Z,96940.28
2022-10-23T21:27:36.007Z,96935.34
2022-10-23T21:29:38.585Z,96924.41
2022-10-23T21:31:41.228Z,96940.66
2022-10-23T21:33:46.761Z,96946.28
2022-10-23T21:35:58.372Z,96944.03
2022-10-23T21:38:02.552Z,96933.97
2022-10-23T21:40:06.230Z,96938.38
2022-10-23T21:42:08.933Z,96935.22
2022-10-23T21:44:13.802Z,96924.91
2022-10-23T21:46:18.469Z,96928.88
2022-10-23T21:48:20.995Z,96911.94
2022-10-23T21:50:23.608Z,96915.91
2022-10-23T21:52:26.258Z,96903.78
2022-10-23T21:54:30.175Z,96914.09
2022-10-23T21:56:35.126Z,96911.69
2022-10-23T21:58:37.709Z,96914.72
2022-10-23T22:00:40.321Z,96913.28
2022-10-23T22:02:43.312Z,96913.03
2022-10-23T22:04:46.181Z,96913.16
2022-10-23T22:06:50.581Z,96916.00
2022-10-23T22:08:54.383Z,96924.78
2022-10-23T22:10:58.409Z,96917.00
2022-10-23T22:13:00.969Z,96922.53
2022-10-23T22:15:03.541Z,96917.94
2022-10-23T22:17:06.560Z,96920.56
2022-10-23T22:19:09.305Z,96915.53
2022-10-23T22:21:13.980Z,96913.72
2022-10-23T22:23:16.595Z,96915.41
2022-10-23T22:25:19.264Z,96903.88
2022-10-23T22:27:23.225Z,96908.06
2022-10-23T22:29:27.863Z,96894.63
2022-10-23T22:31:32.528Z,96912.03
2022-10-23T22:33:35.099Z,96897.88
2022-10-23T22:35:37.649Z,96900.41
2022-10-23T22:37:40.185Z,96904.72
2022-10-23T22:39:42.824Z,96896.19
2022-10-23T22:41:48.608Z,96894.63
2022-10-23T22:43:56.601Z,96897.75
2022-10-23T22:46:04.501Z,96903.97
2022-10-23T22:48:08.376Z,96900.34
2022-10-23T22:50:11.196Z,96901.78
2022-10-23T22:52:13.983Z,96904.84
2022-10-23T22:54:16.534Z,96902.94
2022-10-23T22:56:22.066Z,96905.69
2022-10-23T22:58:26.673Z,96902.84
2022-10-23T23:00:30.610Z,96899.09
2022-10-23T23:02:33.147Z,96899.94
2022-10-23T23:04:38.220Z,96899.47
2022-10-23T23:06:41.421Z,96893.25
2022-10-23T23:08:44.269Z,96897.56
2022-10-23T23:10:53.157Z,96895.22
2022-10-23T23:12:55.719Z,96888.91
2022-10-23T23:14:58.934Z,96902.03
2022-10-23T23:17:03.092Z,96897.22
2022-10-23T23:19:05.780Z,96898.28
2022-10-23T23:21:08.340Z,96902.19
2022-10-23T23:23:11.746Z,96911.19
2022-10-23T23:25:14.369Z,96913.19
2022-10-23T23:27:19.520Z,96903.69
2022-10-23T23:29:22.098Z,96907.53
2022-10-23T23:31:26.193Z,96906.91
2022-10-23T23:33:30.176Z,96901.94
2022-10-23T23:35:32.767Z,96900.69
2022-10-23T23:37:35.354Z,96893.84
2022-10-23T23:39:37.955Z,96888.44
2022-10-23T23:41:40.553Z,96884.50
2022-10-23T23:43:43.799Z,96892.25
2022-10-23T23:45:46.449Z,96881.34
2022-10-23T23:47:49.001Z,96887.13
2022-10-23T23:49:52.933Z,96870.19
2022-10-23T23:51:55.542Z,96885.31
2022-10-23T23:53:58.183Z,96886.22
2022-10-23T23:56:00.785Z,96881.41
2022-10-23T23:58:03.432Z,96892.34
